sensor_id;sensor_type;location;lat;lon;timestamp;temperature;humidity
24744;DHT22;12844;52.110;5.548;2022-12-20T00:01:41;21.60;46.60
24744;DHT22;12844;52.110;5.548;2022-12-20T00:04:08;21.60;46.70
24744;DHT22;12844;52.110;5.548;2022-12-20T00:06:35;21.60;46.60
24744;DHT22;12844;52.110;5.548;2022-12-20T00:09:02;21.60;47.30
24744;DHT22;12844;52.110;5.548;2022-12-20T00:11:29;21.60;46.70
24744;DHT22;12844;52.110;5.548;2022-12-20T00:13:54;21.60;46.70
24744;DHT22;12844;52.110;5.548;2022-12-20T00:16:23;21.60;46.70
24744;DHT22;12844;52.110;5.548;2022-12-20T00:18:53;21.60;46.70
24744;DHT22;12844;52.110;5.548;2022-12-20T00:21:19;21.60;46.70
24744;DHT22;12844;52.110;5.548;2022-12-20T00:23:45;21.50;46.60
24744;DHT22;12844;52.110;5.548;2022-12-20T00:26:13;21.50;46.60
24744;DHT22;12844;52.110;5.548;2022-12-20T00:28:40;21.50;46.70
24744;DHT22;12844;52.110;5.548;2022-12-20T00:31:06;21.50;46.70
24744;DHT22;12844;52.110;5.548;2022-12-20T00:33:34;21.50;46.80
24744;DHT22;12844;52.110;5.548;2022-12-20T00:35:59;21.40;47.00
24744;DHT22;12844;52.110;5.548;2022-12-20T00:38:26;21.40;46.90
24744;DHT22;12844;52.110;5.548;2022-12-20T00:41:19;21.40;46.90
24744;DHT22;12844;52.110;5.548;2022-12-20T00:43:45;21.40;46.90
24744;DHT22;12844;52.110;5.548;2022-12-20T00:46:12;21.30;47.10
24744;DHT22;12844;52.110;5.548;2022-12-20T00:48:38;21.40;47.00
24744;DHT22;12844;52.110;5.548;2022-12-20T00:51:07;21.40;47.00
24744;DHT22;12844;52.110;5.548;2022-12-20T00:53:32;21.40;46.90
24744;DHT22;12844;52.110;5.548;2022-12-20T00:55:58;21.40;46.80
24744;DHT22;12844;52.110;5.548;2022-12-20T00:58:24;21.40;46.80
24744;DHT22;12844;52.110;5.548;2022-12-20T01:00:50;21.40;46.70
24744;DHT22;12844;52.110;5.548;2022-12-20T01:03:16;21.30;46.60
24744;DHT22;12844;52.110;5.548;2022-12-20T01:05:56;21.30;46.70
24744;DHT22;12844;52.110;5.548;2022-12-20T01:08:23;21.40;46.70
24744;DHT22;12844;52.110;5.548;2022-12-20T01:10:59;21.30;46.70
24744;DHT22;12844;52.110;5.548;2022-12-20T01:13:25;21.30;46.70
24744;DHT22;12844;52.110;5.548;2022-12-20T01:15:51;21.30;46.70
24744;DHT22;12844;52.110;5.548;2022-12-20T01:18:16;21.30;46.70
24744;DHT22;12844;52.110;5.548;2022-12-20T01:20:42;21.30;46.70
24744;DHT22;12844;52.110;5.548;2022-12-20T01:23:08;21.30;46.70
24744;DHT22;12844;52.110;5.548;2022-12-20T01:25:33;21.20;46.70
24744;DHT22;12844;52.110;5.548;2022-12-20T01:27:59;21.20;46.60
24744;DHT22;12844;52.110;5.548;2022-12-20T01:30:24;21.20;46.70
24744;DHT22;12844;52.110;5.548;2022-12-20T01:32:50;21.20;46.70
24744;DHT22;12844;52.110;5.548;2022-12-20T01:35:15;21.20;46.70
24744;DHT22;12844;52.110;5.548;2022-12-20T01:37:41;21.20;46.70
24744;DHT22;12844;52.110;5.548;2022-12-20T01:40:07;21.10;46.70
24744;DHT22;12844;52.110;5.548;2022-12-20T01:42:34;21.20;46.70
24744;DHT22;12844;52.110;5.548;2022-12-20T01:45:00;21.10;46.60
24744;DHT22;12844;52.110;5.548;2022-12-20T01:47:29;21.10;46.70
24744;DHT22;12844;52.110;5.548;2022-12-20T01:49:58;21.10;46.70
24744;DHT22;12844;52.110;5.548;2022-12-20T01:52:36;21.10;46.70
24744;DHT22;12844;52.110;5.548;2022-12-20T01:55:12;21.10;46.70
24744;DHT22;12844;52.110;5.548;2022-12-20T01:57:55;21.00;46.70
24744;DHT22;12844;52.110;5.548;2022-12-20T02:00:24;21.00;46.70
24744;DHT22;12844;52.110;5.548;2022-12-20T02:02:49;21.00;46.70
24744;DHT22;12844;52.110;5.548;2022-12-20T02:05:17;21.00;46.70
24744;DHT22;12844;52.110;5.548;2022-12-20T02:07:45;21.00;46.80
24744;DHT22;12844;52.110;5.548;2022-12-20T02:10:12;21.00;46.70
24744;DHT22;12844;52.110;5.548;2022-12-20T02:12:41;21.00;46.70
24744;DHT22;12844;52.110;5.548;2022-12-20T02:15:34;21.00;46.70
24744;DHT22;12844;52.110;5.548;2022-12-20T02:18:26;21.00;46.70
24744;DHT22;12844;52.110;5.548;2022-12-20T02:21:18;20.90;46.70
24744;DHT22;12844;52.110;5.548;2022-12-20T02:23:53;20.90;46.80
24744;DHT22;12844;52.110;5.548;2022-12-20T02:26:40;20.90;46.90
24744;DHT22;12844;52.110;5.548;2022-12-20T02:29:31;20.90;46.90
24744;DHT22;12844;52.110;5.548;2022-12-20T02:32:08;20.90;46.90
24744;DHT22;12844;52.110;5.548;2022-12-20T02:34:38;20.90;46.90
24744;DHT22;12844;52.110;5.548;2022-12-20T02:37:04;20.80;46.90
24744;DHT22;12844;52.110;5.548;2022-12-20T02:39:31;20.80;46.90
24744;DHT22;12844;52.110;5.548;2022-12-20T02:42:03;20.80;46.90
24744;DHT22;12844;52.110;5.548;2022-12-20T02:44:31;20.80;46.90
24744;DHT22;12844;52.110;5.548;2022-12-20T02:47:21;20.80;46.90
24744;DHT22;12844;52.110;5.548;2022-12-20T02:49:49;20.80;46.90
24744;DHT22;12844;52.110;5.548;2022-12-20T02:52:16;20.80;46.90
24744;DHT22;12844;52.110;5.548;2022-12-20T02:54:43;20.70;46.90
24744;DHT22;12844;52.110;5.548;2022-12-20T03:00:04;20.80;46.80
24744;DHT22;12844;52.110;5.548;2022-12-20T03:02:31;20.70;46.90
24744;DHT22;12844;52.110;5.548;2022-12-20T03:05:20;20.70;46.90
24744;DHT22;12844;52.110;5.548;2022-12-20T03:07:46;20.70;46.90
24744;DHT22;12844;52.110;5.548;2022-12-20T03:10:11;20.70;46.90
24744;DHT22;12844;52.110;5.548;2022-12-20T03:12:37;20.70;46.90
24744;DHT22;12844;52.110;5.548;2022-12-20T03:15:03;20.70;46.90
24744;DHT22;12844;52.110;5.548;2022-12-20T03:17:28;20.70;46.90
24744;DHT22;12844;52.110;5.548;2022-12-20T03:19:54;20.70;46.90
24744;DHT22;12844;52.110;5.548;2022-12-20T03:22:19;20.70;46.90
24744;DHT22;12844;52.110;5.548;2022-12-20T03:24:45;20.70;46.90
24744;DHT22;12844;52.110;5.548;2022-12-20T03:27:10;20.60;46.80
24744;DHT22;12844;52.110;5.548;2022-12-20T03:29:36;20.60;46.90
24744;DHT22;12844;52.110;5.548;2022-12-20T03:32:01;20.60;46.90
24744;DHT22;12844;52.110;5.548;2022-12-20T03:34:27;20.60;46.90
24744;DHT22;12844;52.110;5.548;2022-12-20T03:36:52;20.60;47.00
24744;DHT22;12844;52.110;5.548;2022-12-20T03:39:18;20.60;46.90
24744;DHT22;12844;52.110;5.548;2022-12-20T03:41:43;20.60;47.00
24744;DHT22;12844;52.110;5.548;2022-12-20T03:44:09;20.60;47.00
24744;DHT22;12844;52.110;5.548;2022-12-20T03:46:35;20.50;47.00
24744;DHT22;12844;52.110;5.548;2022-12-20T03:49:00;20.50;46.90
24744;DHT22;12844;52.110;5.548;2022-12-20T03:51:26;20.60;47.00
24744;DHT22;12844;52.110;5.548;2022-12-20T03:53:51;20.50;47.00
24744;DHT22;12844;52.110;5.548;2022-12-20T03:56:17;20.50;47.00
24744;DHT22;12844;52.110;5.548;2022-12-20T03:58:43;20.50;47.00
24744;DHT22;12844;52.110;5.548;2022-12-20T04:01:24;20.50;47.00
24744;DHT22;12844;52.110;5.548;2022-12-20T04:03:50;20.50;47.00
24744;DHT22;12844;52.110;5.548;2022-12-20T04:06:16;20.50;47.00
24744;DHT22;12844;52.110;5.548;2022-12-20T04:08:41;20.50;47.10
24744;DHT22;12844;52.110;5.548;2022-12-20T04:11:07;20.40;47.00
24744;DHT22;12844;52.110;5.548;2022-12-20T04:13:50;20.40;47.00
24744;DHT22;12844;52.110;5.548;2022-12-20T04:16:18;20.50;47.00
24744;DHT22;12844;52.110;5.548;2022-12-20T04:18:44;20.40;47.00
24744;DHT22;12844;52.110;5.548;2022-12-20T04:21:11;20.40;47.00
24744;DHT22;12844;52.110;5.548;2022-12-20T04:23:38;20.40;47.00
24744;DHT22;12844;52.110;5.548;2022-12-20T04:26:05;20.40;47.10
24744;DHT22;12844;52.110;5.548;2022-12-20T04:28:32;20.40;47.00
24744;DHT22;12844;52.110;5.548;2022-12-20T04:30:57;20.40;47.00
24744;DHT22;12844;52.110;5.548;2022-12-20T04:33:24;20.40;47.00
24744;DHT22;12844;52.110;5.548;2022-12-20T04:35:50;20.40;47.00
24744;DHT22;12844;52.110;5.548;2022-12-20T04:38:16;20.40;47.00
24744;DHT22;12844;52.110;5.548;2022-12-20T04:40:42;20.30;47.60
24744;DHT22;12844;52.110;5.548;2022-12-20T04:43:08;20.30;47.00
24744;DHT22;12844;52.110;5.548;2022-12-20T04:45:34;20.30;47.00
24744;DHT22;12844;52.110;5.548;2022-12-20T04:47:59;20.30;47.00
24744;DHT22;12844;52.110;5.548;2022-12-20T04:50:25;20.30;47.00
24744;DHT22;12844;52.110;5.548;2022-12-20T04:52:50;20.40;47.10
24744;DHT22;12844;52.110;5.548;2022-12-20T04:55:40;20.30;47.00
24744;DHT22;12844;52.110;5.548;2022-12-20T04:58:06;20.30;47.10
24744;DHT22;12844;52.110;5.548;2022-12-20T05:00:33;20.30;47.00
24744;DHT22;12844;52.110;5.548;2022-12-20T05:02:59;20.30;47.00
24744;DHT22;12844;52.110;5.548;2022-12-20T05:05:25;20.30;47.10
24744;DHT22;12844;52.110;5.548;2022-12-20T05:07:51;20.30;47.10
24744;DHT22;12844;52.110;5.548;2022-12-20T05:10:18;20.30;47.10
24744;DHT22;12844;52.110;5.548;2022-12-20T05:12:43;20.30;47.10
24744;DHT22;12844;52.110;5.548;2022-12-20T05:15:10;20.30;47.10
24744;DHT22;12844;52.110;5.548;2022-12-20T05:17:36;20.20;47.10
24744;DHT22;12844;52.110;5.548;2022-12-20T05:20:03;20.20;47.10
24744;DHT22;12844;52.110;5.548;2022-12-20T05:22:28;20.20;47.10
24744;DHT22;12844;52.110;5.548;2022-12-20T05:25:13;20.20;47.10
24744;DHT22;12844;52.110;5.548;2022-12-20T05:27:57;20.20;47.20
24744;DHT22;12844;52.110;5.548;2022-12-20T05:30:23;20.20;47.20
24744;DHT22;12844;52.110;5.548;2022-12-20T05:32:49;20.20;47.20
24744;DHT22;12844;52.110;5.548;2022-12-20T05:35:15;20.20;47.20
24744;DHT22;12844;52.110;5.548;2022-12-20T05:37:40;20.20;47.20
24744;DHT22;12844;52.110;5.548;2022-12-20T05:40:06;20.20;47.20
24744;DHT22;12844;52.110;5.548;2022-12-20T05:42:32;20.10;47.20
24744;DHT22;12844;52.110;5.548;2022-12-20T05:44:58;20.20;47.20
24744;DHT22;12844;52.110;5.548;2022-12-20T05:47:25;20.20;47.20
24744;DHT22;12844;52.110;5.548;2022-12-20T05:49:50;20.10;47.20
24744;DHT22;12844;52.110;5.548;2022-12-20T05:52:16;20.10;47.20
24744;DHT22;12844;52.110;5.548;2022-12-20T05:54:41;20.10;47.20
24744;DHT22;12844;52.110;5.548;2022-12-20T05:57:07;20.10;47.20
24744;DHT22;12844;52.110;5.548;2022-12-20T05:59:33;20.10;47.20
24744;DHT22;12844;52.110;5.548;2022-12-20T06:01:58;20.10;47.20
24744;DHT22;12844;52.110;5.548;2022-12-20T06:04:24;20.10;47.20
24744;DHT22;12844;52.110;5.548;2022-12-20T06:06:49;20.10;47.30
24744;DHT22;12844;52.110;5.548;2022-12-20T06:09:15;20.10;47.20
24744;DHT22;12844;52.110;5.548;2022-12-20T06:11:40;20.10;47.30
24744;DHT22;12844;52.110;5.548;2022-12-20T06:14:06;20.10;47.30
24744;DHT22;12844;52.110;5.548;2022-12-20T06:16:31;20.10;47.20
24744;DHT22;12844;52.110;5.548;2022-12-20T06:18:57;20.10;47.30
24744;DHT22;12844;52.110;5.548;2022-12-20T06:21:22;20.10;47.30
24744;DHT22;12844;52.110;5.548;2022-12-20T06:23:48;20.10;47.30
24744;DHT22;12844;52.110;5.548;2022-12-20T06:26:13;20.10;47.30
24744;DHT22;12844;52.110;5.548;2022-12-20T06:28:39;20.10;47.30
24744;DHT22;12844;52.110;5.548;2022-12-20T06:31:08;20.10;47.30
24744;DHT22;12844;52.110;5.548;2022-12-20T06:33:35;20.00;47.30
24744;DHT22;12844;52.110;5.548;2022-12-20T06:36:01;20.00;47.30
24744;DHT22;12844;52.110;5.548;2022-12-20T06:38:27;20.00;47.30
24744;DHT22;12844;52.110;5.548;2022-12-20T06:40:53;20.00;47.30
24744;DHT22;12844;52.110;5.548;2022-12-20T06:43:18;20.00;47.30
24744;DHT22;12844;52.110;5.548;2022-12-20T06:45:44;20.00;47.30
24744;DHT22;12844;52.110;5.548;2022-12-20T06:48:10;20.00;47.30
24744;DHT22;12844;52.110;5.548;2022-12-20T06:50:37;20.00;47.40
24744;DHT22;12844;52.110;5.548;2022-12-20T06:53:02;20.00;47.40
24744;DHT22;12844;52.110;5.548;2022-12-20T06:55:28;20.00;47.40
24744;DHT22;12844;52.110;5.548;2022-12-20T06:57:53;20.00;47.40
24744;DHT22;12844;52.110;5.548;2022-12-20T07:00:21;20.00;47.40
24744;DHT22;12844;52.110;5.548;2022-12-20T07:02:46;20.00;47.40
24744;DHT22;12844;52.110;5.548;2022-12-20T07:05:12;20.00;47.40
24744;DHT22;12844;52.110;5.548;2022-12-20T07:07:37;19.90;47.40
24744;DHT22;12844;52.110;5.548;2022-12-20T07:10:03;19.90;47.40
24744;DHT22;12844;52.110;5.548;2022-12-20T07:12:29;20.00;47.40
24744;DHT22;12844;52.110;5.548;2022-12-20T07:14:55;19.90;47.40
24744;DHT22;12844;52.110;5.548;2022-12-20T07:17:20;19.90;47.40
24744;DHT22;12844;52.110;5.548;2022-12-20T07:19:46;19.90;47.40
24744;DHT22;12844;52.110;5.548;2022-12-20T07:22:11;19.90;47.40
24744;DHT22;12844;52.110;5.548;2022-12-20T07:24:37;19.90;47.40
24744;DHT22;12844;52.110;5.548;2022-12-20T07:27:03;19.90;47.40
24744;DHT22;12844;52.110;5.548;2022-12-20T07:29:29;19.90;47.40
24744;DHT22;12844;52.110;5.548;2022-12-20T07:31:54;19.90;47.40
24744;DHT22;12844;52.110;5.548;2022-12-20T07:34:20;19.90;47.50
24744;DHT22;12844;52.110;5.548;2022-12-20T07:36:46;19.90;47.40
24744;DHT22;12844;52.110;5.548;2022-12-20T07:39:11;19.90;47.50
24744;DHT22;12844;52.110;5.548;2022-12-20T07:41:37;19.90;47.40
24744;DHT22;12844;52.110;5.548;2022-12-20T07:44:03;19.90;47.50
24744;DHT22;12844;52.110;5.548;2022-12-20T07:46:28;19.90;47.50
24744;DHT22;12844;52.110;5.548;2022-12-20T07:48:54;19.90;47.50
24744;DHT22;12844;52.110;5.548;2022-12-20T07:51:27;19.90;47.40
24744;DHT22;12844;52.110;5.548;2022-12-20T07:53:59;19.90;47.40
24744;DHT22;12844;52.110;5.548;2022-12-20T07:56:26;19.80;47.50
24744;DHT22;12844;52.110;5.548;2022-12-20T07:58:54;19.80;47.50
24744;DHT22;12844;52.110;5.548;2022-12-20T08:01:23;19.80;47.50
24744;DHT22;12844;52.110;5.548;2022-12-20T08:03:50;19.80;47.50
24744;DHT22;12844;52.110;5.548;2022-12-20T08:06:18;19.80;47.50
24744;DHT22;12844;52.110;5.548;2022-12-20T08:08:50;19.80;47.50
24744;DHT22;12844;52.110;5.548;2022-12-20T08:11:17;19.90;47.50
24744;DHT22;12844;52.110;5.548;2022-12-20T08:13:44;19.90;47.70
24744;DHT22;12844;52.110;5.548;2022-12-20T08:16:09;20.00;47.60
24744;DHT22;12844;52.110;5.548;2022-12-20T08:18:35;20.20;47.60
24744;DHT22;12844;52.110;5.548;2022-12-20T08:21:00;20.40;47.40
24744;DHT22;12844;52.110;5.548;2022-12-20T08:23:26;20.60;47.30
24744;DHT22;12844;52.110;5.548;2022-12-20T08:25:51;20.70;47.30
24744;DHT22;12844;52.110;5.548;2022-12-20T08:28:17;20.90;47.10
24744;DHT22;12844;52.110;5.548;2022-12-20T08:30:42;21.20;46.90
24744;DHT22;12844;52.110;5.548;2022-12-20T08:33:08;21.30;46.80
24744;DHT22;12844;52.110;5.548;2022-12-20T08:35:34;21.50;46.60
24744;DHT22;12844;52.110;5.548;2022-12-20T08:37:59;21.60;46.60
24744;DHT22;12844;52.110;5.548;2022-12-20T08:40:25;21.70;46.20
24744;DHT22;12844;52.110;5.548;2022-12-20T08:42:50;21.80;46.10
24744;DHT22;12844;52.110;5.548;2022-12-20T08:45:16;21.90;46.00
24744;DHT22;12844;52.110;5.548;2022-12-20T08:47:43;21.90;45.80
24744;DHT22;12844;52.110;5.548;2022-12-20T08:50:09;21.90;45.80
24744;DHT22;12844;52.110;5.548;2022-12-20T08:52:34;21.90;45.90
24744;DHT22;12844;52.110;5.548;2022-12-20T08:55:00;21.80;46.00
24744;DHT22;12844;52.110;5.548;2022-12-20T08:57:25;21.70;46.10
24744;DHT22;12844;52.110;5.548;2022-12-20T08:59:51;21.70;46.20
24744;DHT22;12844;52.110;5.548;2022-12-20T09:02:16;21.60;46.20
24744;DHT22;12844;52.110;5.548;2022-12-20T09:04:42;21.60;46.20
24744;DHT22;12844;52.110;5.548;2022-12-20T09:07:08;21.50;46.30
24744;DHT22;12844;52.110;5.548;2022-12-20T09:09:34;21.50;46.40
24744;DHT22;12844;52.110;5.548;2022-12-20T09:12:00;21.40;46.40
24744;DHT22;12844;52.110;5.548;2022-12-20T09:14:25;21.40;46.40
24744;DHT22;12844;52.110;5.548;2022-12-20T09:16:51;21.40;46.50
24744;DHT22;12844;52.110;5.548;2022-12-20T09:19:16;21.30;46.50
24744;DHT22;12844;52.110;5.548;2022-12-20T09:21:42;21.30;46.50
24744;DHT22;12844;52.110;5.548;2022-12-20T09:24:08;21.30;46.60
24744;DHT22;12844;52.110;5.548;2022-12-20T09:26:34;21.20;46.50
24744;DHT22;12844;52.110;5.548;2022-12-20T09:29:00;21.20;46.60
24744;DHT22;12844;52.110;5.548;2022-12-20T09:31:26;21.20;46.70
24744;DHT22;12844;52.110;5.548;2022-12-20T09:33:53;21.20;46.80
24744;DHT22;12844;52.110;5.548;2022-12-20T09:36:21;21.30;46.90
24744;DHT22;12844;52.110;5.548;2022-12-20T09:38:47;21.40;47.00
24744;DHT22;12844;52.110;5.548;2022-12-20T09:41:38;21.50;46.90
24744;DHT22;12844;52.110;5.548;2022-12-20T09:46:50;21.80;46.70
24744;DHT22;12844;52.110;5.548;2022-12-20T09:49:18;21.90;46.50
24744;DHT22;12844;52.110;5.548;2022-12-20T09:57:55;22.30;46.30
24744;DHT22;12844;52.110;5.548;2022-12-20T10:00:18;22.30;46.20
24744;DHT22;12844;52.110;5.548;2022-12-20T10:02:44;22.40;46.00
24744;DHT22;12844;52.110;5.548;2022-12-20T10:05:24;22.30;46.10
24744;DHT22;12844;52.110;5.548;2022-12-20T10:08:05;22.30;46.30
24744;DHT22;12844;52.110;5.548;2022-12-20T10:10:54;22.20;46.40
24744;DHT22;12844;52.110;5.548;2022-12-20T10:13:41;22.20;46.60
24744;DHT22;12844;52.110;5.548;2022-12-20T10:19:17;22.30;46.60
24744;DHT22;12844;52.110;5.548;2022-12-20T10:22:02;22.40;46.80
24744;DHT22;12844;52.110;5.548;2022-12-20T10:24:31;22.50;46.70
24744;DHT22;12844;52.110;5.548;2022-12-20T10:27:11;22.60;46.70
24744;DHT22;12844;52.110;5.548;2022-12-20T10:29:37;22.60;46.60
24744;DHT22;12844;52.110;5.548;2022-12-20T10:32:11;22.70;46.60
24744;DHT22;12844;52.110;5.548;2022-12-20T10:34:38;22.80;46.70
24744;DHT22;12844;52.110;5.548;2022-12-20T10:37:12;22.80;46.70
24744;DHT22;12844;52.110;5.548;2022-12-20T10:39:41;22.90;46.50
24744;DHT22;12844;52.110;5.548;2022-12-20T10:42:24;23.00;46.50
24744;DHT22;12844;52.110;5.548;2022-12-20T10:44:51;23.00;46.50
24744;DHT22;12844;52.110;5.548;2022-12-20T10:47:40;23.00;46.40
24744;DHT22;12844;52.110;5.548;2022-12-20T10:50:18;22.90;46.40
24744;DHT22;12844;52.110;5.548;2022-12-20T10:53:01;22.90;46.40
24744;DHT22;12844;52.110;5.548;2022-12-20T10:55:36;22.80;46.40
24744;DHT22;12844;52.110;5.548;2022-12-20T10:58:03;22.80;46.60
24744;DHT22;12844;52.110;5.548;2022-12-20T11:00:31;22.70;46.70
24744;DHT22;12844;52.110;5.548;2022-12-20T11:03:23;22.60;46.90
24744;DHT22;12844;52.110;5.548;2022-12-20T11:06:00;22.60;47.00
24744;DHT22;12844;52.110;5.548;2022-12-20T11:08:30;22.50;47.00
24744;DHT22;12844;52.110;5.548;2022-12-20T11:13:46;22.40;46.90
24744;DHT22;12844;52.110;5.548;2022-12-20T11:16:25;22.40;47.40
24744;DHT22;12844;52.110;5.548;2022-12-20T11:24:34;22.10;47.40
24744;DHT22;12844;52.110;5.548;2022-12-20T11:32:25;22.00;47.70
24744;DHT22;12844;52.110;5.548;2022-12-20T11:37:26;21.90;47.60
24744;DHT22;12844;52.110;5.548;2022-12-20T11:45:44;21.80;47.90
24744;DHT22;12844;52.110;5.548;2022-12-20T11:51:01;21.70;48.10
24744;DHT22;12844;52.110;5.548;2022-12-20T11:53:34;21.70;48.00
24744;DHT22;12844;52.110;5.548;2022-12-20T11:56:31;21.70;48.20
24744;DHT22;12844;52.110;5.548;2022-12-20T11:59:06;21.70;48.10
24744;DHT22;12844;52.110;5.548;2022-12-20T12:01:40;21.70;48.70
24744;DHT22;12844;52.110;5.548;2022-12-20T12:04:13;21.70;48.80
24744;DHT22;12844;52.110;5.548;2022-12-20T12:06:44;21.80;49.00
24744;DHT22;12844;52.110;5.548;2022-12-20T12:09:32;21.90;49.00
24744;DHT22;12844;52.110;5.548;2022-12-20T12:12:45;22.00;48.90
24744;DHT22;12844;52.110;5.548;2022-12-20T12:22:53;22.60;48.50
24744;DHT22;12844;52.110;5.548;2022-12-20T12:25:22;22.70;48.30
24744;DHT22;12844;52.110;5.548;2022-12-20T12:27:47;22.90;48.30
24744;DHT22;12844;52.110;5.548;2022-12-20T12:30:14;22.90;48.20
24744;DHT22;12844;52.110;5.548;2022-12-20T12:32:48;23.00;48.20
24744;DHT22;12844;52.110;5.548;2022-12-20T12:35:38;23.10;48.00
24744;DHT22;12844;52.110;5.548;2022-12-20T12:46:08;23.20;47.90
24744;DHT22;12844;52.110;5.548;2022-12-20T12:48:38;23.20;47.90
24744;DHT22;12844;52.110;5.548;2022-12-20T12:51:06;23.10;48.10
24744;DHT22;12844;52.110;5.548;2022-12-20T12:53:37;23.00;48.00
24744;DHT22;12844;52.110;5.548;2022-12-20T13:09:21;22.60;48.90
24744;DHT22;12844;52.110;5.548;2022-12-20T13:17:56;22.50;48.80
24744;DHT22;12844;52.110;5.548;2022-12-20T13:20:29;22.40;48.80
24744;DHT22;12844;52.110;5.548;2022-12-20T13:25:38;22.40;48.90
24744;DHT22;12844;52.110;5.548;2022-12-20T13:33:47;22.30;49.00
24744;DHT22;12844;52.110;5.548;2022-12-20T13:43:52;22.20;48.80
24744;DHT22;12844;52.110;5.548;2022-12-20T13:46:39;22.10;49.10
24744;DHT22;12844;52.110;5.548;2022-12-20T13:49:10;22.10;48.90
24744;DHT22;12844;52.110;5.548;2022-12-20T13:51:36;22.10;49.10
24744;DHT22;12844;52.110;5.548;2022-12-20T13:54:05;22.00;49.10
24744;DHT22;12844;52.110;5.548;2022-12-20T13:57:01;22.00;49.30
24744;DHT22;12844;52.110;5.548;2022-12-20T13:59:31;22.00;49.70
24744;DHT22;12844;52.110;5.548;2022-12-20T14:01:59;22.00;49.40
24744;DHT22;12844;52.110;5.548;2022-12-20T14:04:36;21.90;49.90
24744;DHT22;12844;52.110;5.548;2022-12-20T14:07:03;21.90;49.80
24744;DHT22;12844;52.110;5.548;2022-12-20T14:09:34;21.90;50.50
24744;DHT22;12844;52.110;5.548;2022-12-20T14:12:06;21.90;49.60
24744;DHT22;12844;52.110;5.548;2022-12-20T14:14:43;21.80;49.80
24744;DHT22;12844;52.110;5.548;2022-12-20T14:20:00;21.80;50.30
24744;DHT22;12844;52.110;5.548;2022-12-20T14:22:26;21.90;50.80
24744;DHT22;12844;52.110;5.548;2022-12-20T14:24:51;22.00;50.60
24744;DHT22;12844;52.110;5.548;2022-12-20T14:27:17;22.20;50.30
24744;DHT22;12844;52.110;5.548;2022-12-20T14:29:44;22.30;50.10
24744;DHT22;12844;52.110;5.548;2022-12-20T14:32:17;22.40;49.90
24744;DHT22;12844;52.110;5.548;2022-12-20T14:34:44;22.60;49.80
24744;DHT22;12844;52.110;5.548;2022-12-20T14:40:00;22.90;49.40
24744;DHT22;12844;52.110;5.548;2022-12-20T14:42:32;23.00;49.10
24744;DHT22;12844;52.110;5.548;2022-12-20T14:45:15;23.10;48.90
24744;DHT22;12844;52.110;5.548;2022-12-20T14:50:38;23.20;48.70
24744;DHT22;12844;52.110;5.548;2022-12-20T14:53:22;23.20;48.60
24744;DHT22;12844;52.110;5.548;2022-12-20T14:55:49;23.20;48.60
24744;DHT22;12844;52.110;5.548;2022-12-20T14:58:24;23.10;48.60
24744;DHT22;12844;52.110;5.548;2022-12-20T15:00:57;23.10;48.80
24744;DHT22;12844;52.110;5.548;2022-12-20T15:03:23;23.00;48.80
24744;DHT22;12844;52.110;5.548;2022-12-20T15:10:56;22.90;49.00
24744;DHT22;12844;52.110;5.548;2022-12-20T15:13:43;22.80;48.90
24744;DHT22;12844;52.110;5.548;2022-12-20T15:16:45;22.80;48.90
24744;DHT22;12844;52.110;5.548;2022-12-20T15:19:10;22.70;48.90
24744;DHT22;12844;52.110;5.548;2022-12-20T15:21:38;22.60;49.20
24744;DHT22;12844;52.110;5.548;2022-12-20T15:24:27;22.60;49.10
24744;DHT22;12844;52.110;5.548;2022-12-20T15:26:53;22.60;49.30
24744;DHT22;12844;52.110;5.548;2022-12-20T15:29:25;22.50;49.10
24744;DHT22;12844;52.110;5.548;2022-12-20T15:32:05;22.50;49.10
24744;DHT22;12844;52.110;5.548;2022-12-20T15:34:34;22.40;49.10
24744;DHT22;12844;52.110;5.548;2022-12-20T15:37:00;22.40;49.20
24744;DHT22;12844;52.110;5.548;2022-12-20T15:39:27;22.30;49.20
24744;DHT22;12844;52.110;5.548;2022-12-20T15:41:54;22.30;49.10
24744;DHT22;12844;52.110;5.548;2022-12-20T15:44:22;22.30;49.10
24744;DHT22;12844;52.110;5.548;2022-12-20T15:46:49;22.30;49.10
24744;DHT22;12844;52.110;5.548;2022-12-20T15:49:23;22.20;49.00
24744;DHT22;12844;52.110;5.548;2022-12-20T15:51:50;22.20;49.10
24744;DHT22;12844;52.110;5.548;2022-12-20T15:56:44;22.10;49.00
24744;DHT22;12844;52.110;5.548;2022-12-20T15:59:10;22.10;49.00
24744;DHT22;12844;52.110;5.548;2022-12-20T16:01:37;22.10;49.00
24744;DHT22;12844;52.110;5.548;2022-12-20T16:04:04;22.00;49.00
24744;DHT22;12844;52.110;5.548;2022-12-20T16:06:30;22.00;48.90
24744;DHT22;12844;52.110;5.548;2022-12-20T16:08:56;22.00;48.90
24744;DHT22;12844;52.110;5.548;2022-12-20T16:11:24;21.90;48.90
24744;DHT22;12844;52.110;5.548;2022-12-20T16:13:52;21.90;48.90
24744;DHT22;12844;52.110;5.548;2022-12-20T16:16:20;21.90;49.00
24744;DHT22;12844;52.110;5.548;2022-12-20T16:18:46;21.90;49.00
24744;DHT22;12844;52.110;5.548;2022-12-20T16:21:17;21.90;48.90
24744;DHT22;12844;52.110;5.548;2022-12-20T16:23:43;21.90;49.00
24744;DHT22;12844;52.110;5.548;2022-12-20T16:26:17;21.80;48.90
24744;DHT22;12844;52.110;5.548;2022-12-20T16:28:44;21.80;49.00
24744;DHT22;12844;52.110;5.548;2022-12-20T16:33:43;21.80;49.00
24744;DHT22;12844;52.110;5.548;2022-12-20T16:36:10;21.70;48.90
24744;DHT22;12844;52.110;5.548;2022-12-20T16:38:36;21.70;48.90
24744;DHT22;12844;52.110;5.548;2022-12-20T16:41:17;21.70;49.10
24744;DHT22;12844;52.110;5.548;2022-12-20T16:43:44;21.70;49.10
24744;DHT22;12844;52.110;5.548;2022-12-20T16:46:14;21.60;49.00
24744;DHT22;12844;52.110;5.548;2022-12-20T16:48:41;21.60;49.00
24744;DHT22;12844;52.110;5.548;2022-12-20T16:53:49;21.60;49.00
24744;DHT22;12844;52.110;5.548;2022-12-20T16:56:16;21.60;49.10
24744;DHT22;12844;52.110;5.548;2022-12-20T16:58:41;21.60;49.10
24744;DHT22;12844;52.110;5.548;2022-12-20T17:01:13;21.60;49.20
24744;DHT22;12844;52.110;5.548;2022-12-20T17:03:39;21.70;50.30
24744;DHT22;12844;52.110;5.548;2022-12-20T17:06:05;21.80;50.50
24744;DHT22;12844;52.110;5.548;2022-12-20T17:08:30;21.90;50.10
24744;DHT22;12844;52.110;5.548;2022-12-20T17:10:57;22.00;50.00
24744;DHT22;12844;52.110;5.548;2022-12-20T17:13:23;22.20;49.90
24744;DHT22;12844;52.110;5.548;2022-12-20T17:15:48;22.30;49.50
24744;DHT22;12844;52.110;5.548;2022-12-20T17:18:14;22.40;49.60
24744;DHT22;12844;52.110;5.548;2022-12-20T17:20:39;22.50;49.90
24744;DHT22;12844;52.110;5.548;2022-12-20T17:23:10;22.60;49.90
24744;DHT22;12844;52.110;5.548;2022-12-20T17:25:37;22.80;49.70
24744;DHT22;12844;52.110;5.548;2022-12-20T17:28:04;22.90;49.60
24744;DHT22;12844;52.110;5.548;2022-12-20T17:30:30;22.90;49.20
24744;DHT22;12844;52.110;5.548;2022-12-20T17:32:56;23.00;49.00
24744;DHT22;12844;52.110;5.548;2022-12-20T17:35:26;23.00;49.00